createdAt,value
2018-11-07T00:00:18.290Z,12.51
2018-11-07T00:02:47.493Z,12.49
2018-11-07T00:05:17.917Z,12.47
2018-11-07T00:07:47.126Z,12.49
2018-11-07T00:10:16.418Z,12.50
2018-11-07T00:12:45.547Z,12.47
2018-11-07T00:15:15.630Z,12.45
2018-11-07T00:17:44.754Z,12.40
2018-11-07T00:20:14.032Z,12.35
2018-11-07T00:22:43.166Z,12.34
2018-11-07T00:25:12.835Z,12.40
2018-11-07T00:27:42.329Z,12.39
2018-11-07T00:30:12.000Z,12.36
2018-11-07T00:32:41.192Z,12.38
2018-11-07T00:35:11.407Z,12.26
2018-11-07T00:37:41.427Z,12.10
2018-11-07T00:40:10.576Z,12.19
2018-11-07T00:42:39.711Z,12.16
2018-11-07T00:45:11.145Z,12.21
2018-11-07T00:47:40.310Z,12.14
2018-11-07T00:50:13.985Z,12.19
2018-11-07T00:52:43.627Z,12.19
2018-11-07T00:55:13.445Z,12.11
2018-11-07T00:57:42.825Z,12.08
2018-11-07T01:00:14.769Z,12.06
2018-11-07T01:02:43.943Z,12.13
2018-11-07T01:05:13.930Z,12.15
2018-11-07T01:07:44.201Z,12.14
2018-11-07T01:10:13.407Z,12.14
2018-11-07T01:12:43.059Z,12.13
2018-11-07T01:15:12.978Z,12.00
2018-11-07T01:17:42.117Z,12.00
2018-11-07T01:20:25.158Z,12.13
2018-11-07T01:22:54.294Z,12.03
2018-11-07T01:25:23.449Z,11.99
2018-11-07T01:27:52.676Z,11.91
2018-11-07T01:30:21.839Z,11.97
2018-11-07T01:32:51.023Z,12.00
2018-11-07T01:35:20.176Z,11.96
2018-11-07T01:37:49.318Z,11.91
2018-11-07T01:40:18.486Z,12.03
2018-11-07T01:42:47.634Z,12.06
2018-11-07T01:45:17.018Z,11.95
2018-11-07T01:47:46.182Z,11.87
2018-11-07T01:50:15.426Z,11.92
2018-11-07T01:52:44.653Z,12.01
2018-11-07T01:55:13.818Z,11.97
2018-11-07T01:57:42.954Z,11.99
2018-11-07T02:00:12.914Z,11.98
2018-11-07T02:02:43.347Z,11.96
2018-11-07T02:05:12.897Z,11.96
2018-11-07T02:07:42.593Z,11.98
2018-11-07T02:10:11.862Z,11.99
2018-11-07T02:12:41.602Z,12.02
2018-11-07T02:15:11.794Z,11.95
2018-11-07T02:17:41.106Z,11.94
2018-11-07T02:20:11.622Z,11.91
2018-11-07T02:22:42.530Z,11.84
2018-11-07T02:25:11.699Z,11.87
2018-11-07T02:27:41.298Z,11.98
2018-11-07T02:30:13.282Z,11.86
2018-11-07T02:32:42.443Z,11.78
2018-11-07T02:35:17.534Z,11.69
2018-11-07T02:37:46.683Z,11.68
2018-11-07T02:40:15.834Z,11.72
2018-11-07T02:42:44.971Z,11.63
2018-11-07T02:45:14.131Z,11.65
2018-11-07T02:47:43.288Z,11.64
2018-11-07T02:50:12.698Z,11.70
2018-11-07T02:52:41.840Z,11.77
2018-11-07T02:55:10.983Z,11.73
2018-11-07T02:57:40.122Z,11.80
2018-11-07T03:00:11.691Z,11.68
2018-11-07T03:02:40.853Z,11.65
2018-11-07T03:05:10.348Z,11.55
2018-11-07T03:07:40.362Z,11.55
2018-11-07T03:10:12.014Z,11.47
2018-11-07T03:12:41.518Z,11.47
2018-11-07T03:15:11.135Z,11.32
2018-11-07T03:17:40.278Z,11.41
2018-11-07T03:20:11.362Z,11.39
2018-11-07T03:22:40.583Z,11.37
2018-11-07T03:25:09.819Z,11.27
2018-11-07T03:27:39.063Z,11.29
2018-11-07T03:30:09.352Z,11.24
2018-11-07T03:32:38.492Z,11.25
2018-11-07T03:35:11.915Z,11.28
2018-11-07T03:37:41.055Z,11.25
2018-11-07T03:40:10.223Z,11.18
2018-11-07T03:42:39.359Z,11.28
2018-11-07T03:45:08.807Z,11.31
2018-11-07T03:47:37.967Z,11.22
2018-11-07T03:50:07.138Z,11.06
2018-11-07T03:52:36.286Z,11.10
2018-11-07T03:55:05.779Z,10.85
2018-11-07T03:57:34.922Z,11.00
2018-11-07T04:00:05.706Z,10.92
2018-11-07T04:02:34.835Z,11.03
2018-11-07T04:05:04.004Z,10.97
2018-11-07T04:07:33.135Z,11.00
2018-11-07T04:10:02.283Z,11.06
2018-11-07T04:12:31.427Z,11.18
2018-11-07T04:15:01.288Z,11.04
2018-11-07T04:17:30.424Z,11.10
2018-11-07T04:20:00.810Z,11.00
2018-11-07T04:22:30.998Z,11.09
2018-11-07T04:25:01.031Z,11.12
2018-11-07T04:27:30.971Z,11.17
2018-11-07T04:30:01.091Z,11.15
2018-11-07T04:32:31.055Z,11.14
2018-11-07T04:35:01.072Z,10.99
2018-11-07T04:37:31.047Z,11.09
2018-11-07T04:40:01.000Z,11.09
2018-11-07T04:42:31.010Z,11.11
2018-11-07T04:45:01.104Z,10.94
2018-11-07T04:47:31.488Z,10.90
2018-11-07T04:50:01.348Z,10.82
2018-11-07T04:52:31.404Z,10.81
2018-11-07T04:55:00.566Z,10.94
2018-11-07T04:57:29.702Z,10.90
2018-11-07T04:59:58.873Z,10.81
2018-11-07T05:02:27.995Z,10.82
2018-11-07T05:04:57.135Z,10.82
2018-11-07T05:07:26.339Z,10.84
2018-11-07T05:09:55.487Z,10.83
2018-11-07T05:12:24.622Z,10.69
2018-11-07T05:14:55.400Z,10.74
2018-11-07T05:17:24.544Z,10.71
2018-11-07T05:19:53.718Z,10.71
2018-11-07T05:22:22.860Z,10.58
2018-11-07T05:24:52.058Z,10.62
2018-11-07T05:27:21.191Z,10.69
2018-11-07T05:29:50.355Z,10.74
2018-11-07T05:32:19.500Z,10.60
2018-11-07T05:34:48.639Z,10.52
2018-11-07T05:37:17.775Z,10.65
2018-11-07T05:39:46.932Z,10.66
2018-11-07T05:42:16.063Z,10.56
2018-11-07T05:44:45.211Z,10.74
2018-11-07T05:47:14.346Z,10.63
2018-11-07T05:49:43.974Z,10.52
2018-11-07T05:52:13.819Z,10.62
2018-11-07T05:54:43.873Z,10.66
2018-11-07T05:57:13.835Z,10.61
2018-11-07T05:59:43.945Z,10.51
2018-11-07T06:02:15.038Z,10.57
2018-11-07T06:04:45.235Z,10.65
2018-11-07T06:07:14.346Z,10.72
2018-11-07T06:09:44.167Z,10.54
2018-11-07T06:12:13.979Z,10.61
2018-11-07T06:14:44.153Z,10.60
2018-11-07T06:17:13.951Z,10.58
2018-11-07T06:19:44.150Z,10.59
2018-11-07T06:22:15.174Z,10.57
2018-11-07T06:24:45.143Z,10.55
2018-11-07T06:27:14.190Z,10.59
2018-11-07T06:29:46.039Z,10.59
2018-11-07T06:32:15.175Z,10.68
2018-11-07T06:34:44.331Z,10.63
2018-11-07T06:37:13.999Z,10.58
2018-11-07T06:39:44.147Z,10.57
2018-11-07T06:42:13.942Z,10.51
2018-11-07T06:44:45.154Z,10.48
2018-11-07T06:47:14.302Z,10.46
2018-11-07T06:49:43.447Z,10.53
2018-11-07T06:52:12.583Z,10.48
2018-11-07T06:54:41.731Z,10.51
2018-11-07T06:57:10.942Z,10.42
2018-11-07T06:59:40.082Z,10.36
2018-11-07T07:02:09.217Z,10.43
2018-11-07T07:04:38.342Z,10.45
2018-11-07T07:07:07.490Z,10.34
2018-11-07T07:09:36.626Z,10.51
2018-11-07T07:12:06.095Z,10.43
2018-11-07T07:14:36.026Z,10.40
2018-11-07T07:17:05.419Z,10.30
2018-11-07T07:19:34.556Z,10.33
2018-11-07T07:22:03.707Z,10.45
2018-11-07T07:24:32.847Z,10.47
2018-11-07T07:27:02.002Z,10.44
2018-11-07T07:29:31.791Z,10.61
2018-11-07T07:32:00.935Z,10.80
2018-11-07T07:34:30.269Z,10.88
2018-11-07T07:36:59.422Z,10.91
2018-11-07T07:39:28.623Z,11.01
2018-11-07T07:41:57.911Z,10.98
2018-11-07T07:44:27.111Z,11.18
2018-11-07T07:46:57.646Z,11.28
2018-11-07T07:49:26.973Z,11.40
2018-11-07T07:51:56.044Z,11.47
2018-11-07T07:54:25.187Z,11.62
2018-11-07T07:56:54.358Z,11.73
2018-11-07T07:59:23.521Z,11.80
2018-11-07T08:01:52.740Z,12.04
2018-11-07T08:04:21.918Z,11.96
2018-11-07T08:06:51.070Z,12.01
2018-11-07T08:09:20.348Z,12.12
2018-11-07T08:11:49.532Z,12.19
2018-11-07T08:14:18.716Z,12.42
2018-11-07T08:16:47.874Z,12.49
2018-11-07T08:19:17.019Z,12.66
2018-11-07T08:21:46.214Z,12.86
2018-11-07T08:24:15.387Z,12.96
2018-11-07T08:26:45.371Z,13.07
2018-11-07T08:29:14.508Z,13.22
2018-11-07T08:31:43.664Z,13.29
2018-11-07T08:34:12.819Z,13.38
2018-11-07T08:36:41.987Z,13.51
2018-11-07T08:39:12.765Z,13.58
2018-11-07T08:41:41.944Z,13.54
2018-11-07T08:44:11.099Z,13.61
2018-11-07T08:46:40.248Z,13.60
2018-11-07T08:49:09.447Z,13.71
2018-11-07T08:51:38.608Z,13.83
2018-11-07T08:54:07.835Z,13.91
2018-11-07T08:56:36.988Z,14.07
2018-11-07T08:59:06.405Z,14.26
2018-11-07T09:04:05.239Z,14.50
2018-11-07T09:06:34.415Z,14.67
2018-11-07T09:09:03.636Z,14.69
2018-11-07T09:11:32.795Z,14.79
2018-11-07T09:14:01.933Z,14.86
2018-11-07T09:16:31.245Z,14.98
2018-11-07T09:19:00.540Z,15.13
2018-11-07T09:21:29.771Z,15.29
2018-11-07T09:23:59.090Z,15.40
2018-11-07T09:26:28.250Z,15.45
2018-11-07T09:28:57.441Z,15.55
2018-11-07T09:31:26.636Z,15.61
2018-11-07T09:33:55.809Z,15.71
2018-11-07T09:36:24.990Z,15.80
2018-11-07T09:38:54.155Z,15.89
2018-11-07T09:41:23.303Z,16.00
2018-11-07T09:43:52.578Z,16.09
2018-11-07T09:46:21.784Z,16.18
2018-11-07T09:48:51.019Z,16.29
2018-11-07T09:51:20.175Z,16.31
2018-11-07T09:53:49.454Z,16.41
2018-11-07T09:56:18.503Z,16.53
2018-11-07T09:58:47.671Z,16.61
2018-11-07T10:01:16.895Z,16.59
2018-11-07T10:03:49.460Z,16.64
2018-11-07T10:06:18.605Z,16.68
2018-11-07T10:08:47.787Z,16.67
2018-11-07T10:11:16.925Z,16.76
2018-11-07T10:13:46.167Z,16.81
2018-11-07T10:16:15.512Z,16.95
2018-11-07T10:18:44.654Z,17.16
2018-11-07T10:21:13.784Z,17.30
2018-11-07T10:23:42.923Z,17.38
2018-11-07T10:26:12.050Z,17.39
2018-11-07T10:28:41.401Z,17.51
2018-11-07T10:31:10.384Z,17.60
2018-11-07T10:33:39.527Z,17.71
2018-11-07T10:36:08.691Z,17.79
2018-11-07T10:38:37.978Z,18.07
2018-11-07T10:41:06.983Z,18.02
2018-11-07T10:43:36.151Z,18.11
2018-11-07T10:46:05.723Z,18.33
2018-11-07T10:48:34.779Z,18.37
2018-11-07T10:51:03.916Z,18.34
2018-11-07T10:53:33.136Z,18.32
2018-11-07T10:56:02.292Z,18.36
2018-11-07T10:58:31.480Z,18.35
2018-11-07T11:01:05.854Z,18.49
2018-11-07T11:03:35.035Z,18.55
2018-11-07T11:06:04.175Z,18.54
2018-11-07T11:08:33.331Z,18.61
2018-11-07T11:11:02.494Z,18.68
2018-11-07T11:13:31.757Z,18.71
2018-11-07T11:16:00.893Z,18.74
2018-11-07T11:18:30.053Z,18.79
2018-11-07T11:20:59.227Z,18.80
2018-11-07T11:23:28.423Z,18.75
2018-11-07T11:25:57.742Z,18.79
2018-11-07T11:28:26.730Z,18.98
2018-11-07T11:30:56.056Z,18.98
2018-11-07T11:33:25.315Z,18.97
2018-11-07T11:35:54.520Z,18.97
2018-11-07T11:38:23.694Z,18.90
2018-11-07T11:43:54.801Z,18.94
2018-11-07T11:46:23.926Z,18.98
2018-11-07T11:48:53.077Z,18.86
2018-11-07T11:51:22.207Z,18.96
2018-11-07T11:53:51.359Z,18.87
2018-11-07T11:56:20.492Z,18.92
2018-11-07T11:58:49.716Z,18.89
2018-11-07T12:01:18.995Z,18.97
2018-11-07T12:03:49.491Z,19.02
2018-11-07T12:06:18.664Z,19.06
2018-11-07T12:08:48.401Z,19.04
2018-11-07T12:11:18.357Z,19.00
2018-11-07T12:18:51.870Z,18.68
2018-11-07T12:21:21.046Z,18.82
2018-11-07T12:23:50.153Z,18.87
2018-11-07T12:26:19.294Z,18.88
2018-11-07T12:28:48.471Z,18.94
2018-11-07T12:31:17.615Z,18.86
2018-11-07T12:33:46.764Z,19.06
2018-11-07T12:36:15.964Z,18.96
2018-11-07T12:38:45.051Z,18.95
2018-11-07T12:41:14.182Z,19.01
2018-11-07T12:43:43.383Z,18.97
2018-11-07T12:46:12.533Z,19.08
2018-11-07T12:48:41.806Z,18.98
2018-11-07T12:51:11.520Z,18.99
2018-11-07T12:53:40.815Z,18.92
2018-11-07T12:56:11.566Z,18.98
2018-11-07T12:58:40.738Z,18.91
2018-11-07T13:01:10.718Z,18.92
2018-11-07T13:03:39.970Z,18.96
2018-11-07T13:06:10.344Z,18.85
2018-11-07T13:08:39.492Z,18.87
2018-11-07T13:11:08.657Z,18.83
2018-11-07T13:13:37.794Z,18.72
2018-11-07T13:16:06.951Z,18.74
2018-11-07T13:18:36.082Z,18.71
2018-11-07T13:21:05.573Z,18.67
2018-11-07T13:23:34.783Z,18.61
2018-11-07T13:26:04.298Z,18.69
2018-11-07T13:28:34.390Z,18.74
2018-11-07T13:31:04.322Z,18.74
2018-11-07T13:33:33.836Z,18.77
2018-11-07T13:36:03.023Z,18.73
2018-11-07T13:38:32.484Z,18.75
2018-11-07T13:41:01.508Z,18.74
2018-11-07T13:43:30.615Z,18.71
2018-11-07T13:45:59.840Z,18.68
2018-11-07T13:48:28.976Z,18.72
2018-11-07T13:50:58.215Z,18.67
2018-11-07T13:58:32.366Z,18.43
2018-11-07T14:01:01.516Z,18.51
2018-11-07T14:03:30.743Z,18.56
2018-11-07T14:05:59.894Z,18.57
2018-11-07T14:08:28.956Z,18.57
2018-11-07T14:10:59.475Z,18.58
2018-11-07T14:13:29.726Z,18.57
2018-11-07T14:15:59.068Z,18.54
2018-11-07T14:18:28.199Z,18.51
2018-11-07T14:20:57.364Z,18.45
2018-11-07T14:23:26.513Z,18.41
2018-11-07T14:25:55.666Z,18.40
2018-11-07T14:28:25.012Z,18.40
2018-11-07T14:30:53.949Z,18.41
2018-11-07T14:33:23.125Z,18.49
2018-11-07T14:35:53.206Z,18.44
2018-11-07T14:38:23.256Z,18.37
2018-11-07T14:40:53.271Z,18.33
2018-11-07T14:43:23.176Z,18.31
2018-11-07T14:45:53.083Z,18.32
2018-11-07T14:48:23.142Z,18.29
2018-11-07T14:50:53.203Z,18.25
2018-11-07T14:53:23.203Z,18.18
2018-11-07T14:55:53.251Z,18.11
2018-11-07T15:03:20.386Z,17.60
2018-11-07T15:05:49.831Z,17.56
2018-11-07T15:08:18.977Z,17.52
2018-11-07T15:10:48.140Z,17.46
2018-11-07T15:13:17.332Z,17.35
2018-11-07T15:15:46.681Z,17.25
2018-11-07T15:18:15.858Z,17.12
2018-11-07T15:20:45.011Z,17.05
2018-11-07T15:23:14.162Z,17.02
2018-11-07T15:25:43.307Z,16.88
2018-11-07T15:28:12.516Z,16.73
2018-11-07T15:30:41.671Z,16.62
2018-11-07T15:33:10.811Z,16.62
2018-11-07T15:35:40.120Z,16.42
2018-11-07T15:38:09.303Z,16.48
2018-11-07T15:40:38.443Z,16.48
2018-11-07T15:43:07.590Z,16.54
2018-11-07T15:45:36.783Z,16.52
2018-11-07T15:48:06.175Z,16.59
2018-11-07T15:50:40.643Z,16.53
2018-11-07T16:08:36.822Z,16.10
2018-11-07T16:11:06.207Z,15.99
2018-11-07T16:13:35.397Z,15.92
2018-11-07T16:16:04.555Z,15.89
2018-11-07T16:18:33.696Z,15.79
2018-11-07T16:21:02.948Z,15.76
2018-11-07T16:23:32.120Z,15.61
2018-11-07T16:26:01.545Z,15.51
2018-11-07T16:28:30.672Z,15.44
2018-11-07T16:30:59.780Z,15.40
2018-11-07T16:33:29.051Z,15.25
2018-11-07T16:35:58.199Z,15.26
2018-11-07T16:38:27.412Z,15.17
2018-11-07T16:40:56.613Z,15.14
2018-11-07T16:43:25.722Z,15.08
2018-11-07T16:45:55.010Z,15.08
2018-11-07T16:48:24.123Z,14.92
2018-11-07T16:50:53.418Z,14.88
2018-11-07T16:53:23.368Z,14.90
2018-11-07T16:55:53.423Z,14.86
2018-11-07T16:58:23.538Z,14.83
2018-11-07T17:00:53.466Z,14.76
2018-11-07T17:03:23.330Z,14.70
2018-11-07T17:05:53.382Z,14.71
2018-11-07T17:08:23.434Z,14.58
2018-11-07T17:10:53.410Z,14.55
2018-11-07T17:13:23.485Z,14.55
2018-11-07T17:15:53.518Z,14.52
2018-11-07T17:18:23.350Z,14.52
2018-11-07T17:20:53.606Z,14.48
2018-11-07T17:23:23.473Z,14.44
2018-11-07T17:25:53.567Z,14.31
2018-11-07T17:28:23.394Z,14.18
2018-11-07T17:30:53.439Z,14.18
2018-11-07T17:33:27.470Z,14.18
2018-11-07T17:35:56.646Z,14.06
2018-11-07T17:38:25.842Z,14.11
2018-11-07T17:40:55.002Z,14.10
2018-11-07T17:43:24.190Z,14.05
2018-11-07T17:45:54.462Z,14.08
2018-11-07T17:48:23.621Z,14.05
2018-11-07T17:50:54.679Z,13.99
2018-11-07T17:53:23.810Z,13.95
2018-11-07T17:55:53.606Z,13.94
2018-11-07T17:58:23.570Z,13.83
2018-11-07T18:00:53.591Z,13.89
2018-11-07T18:03:23.499Z,13.87
2018-11-07T18:05:53.256Z,13.76
2018-11-07T18:08:23.471Z,13.77
2018-11-07T18:10:53.994Z,13.73
2018-11-07T18:13:23.684Z,13.65
2018-11-07T18:15:53.574Z,13.62
2018-11-07T18:18:23.590Z,13.60
2018-11-07T18:20:57.404Z,13.60
2018-11-07T18:23:26.601Z,13.50
2018-11-07T18:25:56.282Z,13.44
2018-11-07T18:28:25.421Z,13.49
2018-11-07T18:30:54.684Z,13.51
2018-11-07T18:33:23.832Z,13.46
2018-11-07T18:35:53.117Z,13.48
2018-11-07T18:38:22.211Z,13.33
2018-11-07T18:40:51.390Z,13.33
2018-11-07T18:43:20.529Z,13.26
2018-11-07T18:45:49.690Z,13.23
2018-11-07T18:48:18.903Z,13.23
2018-11-07T18:50:48.193Z,13.23
2018-11-07T18:53:17.232Z,13.17
2018-11-07T18:55:46.374Z,13.12
2018-11-07T18:58:15.579Z,13.13
2018-11-07T19:00:44.783Z,13.22
2018-11-07T19:03:13.951Z,13.25
2018-11-07T19:05:43.091Z,13.22
2018-11-07T19:08:12.279Z,13.27
2018-11-07T19:10:41.431Z,13.25
2018-11-07T19:13:10.647Z,13.19
2018-11-07T19:15:39.860Z,13.25
2018-11-07T19:18:09.044Z,13.22
2018-11-07T19:20:38.316Z,13.27
2018-11-07T19:23:07.426Z,13.20
2018-11-07T19:25:36.665Z,13.23
2018-11-07T19:28:05.875Z,13.25
2018-11-07T19:30:35.058Z,13.24
2018-11-07T19:33:04.333Z,13.25
2018-11-07T19:35:33.391Z,13.26
2018-11-07T19:38:02.600Z,13.24
2018-11-07T19:40:31.745Z,13.20
2018-11-07T19:43:00.999Z,13.29
2018-11-07T19:45:30.192Z,13.27
2018-11-07T19:47:59.482Z,13.33
2018-11-07T19:50:28.614Z,13.27
2018-11-07T19:52:57.795Z,13.40
2018-11-07T19:55:26.930Z,13.35
2018-11-07T19:58:00.054Z,13.30
2018-11-07T20:00:29.287Z,13.18
2018-11-07T20:02:58.472Z,13.30
2018-11-07T20:05:27.609Z,13.29
2018-11-07T20:07:56.791Z,13.38
2018-11-07T20:10:26.574Z,13.38
2018-11-07T20:12:55.718Z,13.38
2018-11-07T20:15:24.862Z,13.44
2018-11-07T20:17:54.042Z,13.37
2018-11-07T20:20:23.200Z,13.29
2018-11-07T20:22:52.446Z,13.41
2018-11-07T20:25:21.519Z,13.46
2018-11-07T20:27:50.767Z,13.38
2018-11-07T20:30:20.823Z,13.25
2018-11-07T20:32:50.009Z,13.23
2018-11-07T20:35:20.065Z,13.26
2018-11-07T20:37:49.234Z,13.30
2018-11-07T20:40:19.659Z,13.33
2018-11-07T20:42:49.111Z,13.25
2018-11-07T20:45:18.591Z,13.16
2018-11-07T20:47:47.781Z,13.22
2018-11-07T20:50:18.786Z,13.28
2018-11-07T20:52:48.170Z,13.34
2018-11-07T20:55:17.707Z,13.39
2018-11-07T20:57:46.847Z,13.35
2018-11-07T21:00:19.959Z,13.33
2018-11-07T21:02:49.506Z,13.32
2018-11-07T21:05:18.674Z,13.33
2018-11-07T21:07:48.023Z,13.35
2018-11-07T21:10:18.434Z,13.31
2018-11-07T21:12:48.450Z,13.37
2018-11-07T21:15:18.556Z,13.34
2018-11-07T21:17:47.995Z,13.30
2018-11-07T21:20:17.218Z,13.31
2018-11-07T21:22:46.350Z,13.38
2018-11-07T21:25:15.690Z,13.35
2018-11-07T21:27:44.829Z,13.36
2018-11-07T21:30:15.074Z,13.29
2018-11-07T21:32:44.793Z,13.34
2018-11-07T21:35:13.989Z,13.36
2018-11-07T21:37:43.134Z,13.32
2018-11-07T21:40:15.691Z,13.35
2018-11-07T21:42:45.594Z,13.30
2018-11-07T21:45:15.327Z,13.28
2018-11-07T21:47:44.802Z,13.38
2018-11-07T21:50:16.034Z,13.38
2018-11-07T21:52:45.254Z,13.42
2018-11-07T21:55:14.439Z,13.36
2018-11-07T21:57:43.605Z,13.34
2018-11-07T22:00:16.424Z,13.31
2018-11-07T22:02:45.887Z,13.37
2018-11-07T22:05:15.842Z,13.41
2018-11-07T22:07:45.013Z,13.47
2018-11-07T22:10:15.472Z,13.33
2018-11-07T22:12:44.690Z,13.35
2018-11-07T22:15:13.878Z,13.49
2018-11-07T22:17:43.014Z,13.42
2018-11-07T22:20:15.562Z,13.34
2018-11-07T22:22:45.197Z,13.39
2018-11-07T22:25:14.959Z,13.40
2018-11-07T22:27:44.227Z,13.37
2018-11-07T22:30:14.907Z,13.36
2018-11-07T22:32:44.063Z,13.30
2018-11-07T22:35:14.840Z,13.34
2018-11-07T22:37:44.730Z,13.44
2018-11-07T22:40:15.171Z,13.40
2018-11-07T22:42:44.395Z,13.47
2018-11-07T22:45:14.083Z,13.47
2018-11-07T22:47:43.234Z,13.46
2018-11-07T22:50:13.608Z,13.50
2018-11-07T22:52:43.717Z,13.40
2018-11-07T22:55:12.876Z,13.39
2018-11-07T22:57:42.024Z,13.38
2018-11-07T23:00:20.541Z,13.42
2018-11-07T23:02:53.624Z,13.43
2018-11-07T23:05:22.771Z,13.36
2018-11-07T23:07:52.427Z,13.36
2018-11-07T23:10:21.589Z,13.43
2018-11-07T23:12:51.060Z,13.42
2018-11-07T23:15:25.490Z,13.48
2018-11-07T23:17:54.644Z,13.51
2018-11-07T23:20:23.804Z,13.38
2018-11-07T23:22:52.976Z,13.29
2018-11-07T23:25:22.171Z,13.38
2018-11-07T23:27:51.335Z,13.33
2018-11-07T23:30:20.505Z,13.32
2018-11-07T23:32:49.647Z,13.29
2018-11-07T23:35:18.795Z,13.30
2018-11-07T23:37:47.934Z,13.20
2018-11-07T23:40:17.091Z,13.28
2018-11-07T23:42:46.243Z,13.35
2018-11-07T23:45:15.392Z,13.42
2018-11-07T23:47:44.577Z,13.50
2018-11-07T23:50:13.726Z,13.44
2018-11-07T23:52:48.941Z,13.46
2018-11-07T23:55:19.435Z,13.45
2018-11-07T23:57:49.179Z,13.42
